createdAt,value
2022-12-23T00:00:37.315Z,29.53
2022-12-23T00:05:40.166Z,28.98
2022-12-23T00:10:42.979Z,28.95
2022-12-23T00:15:46.811Z,27.23
2022-12-23T00:20:49.267Z,32.50
2022-12-23T00:25:51.711Z,34.17
2022-12-23T00:30:56.673Z,24.33
2022-12-23T00:35:59.272Z,29.90
2022-12-23T00:41:19.437Z,30.43
2022-12-23T00:46:23.267Z,36.80
2022-12-23T00:51:25.805Z,34.17
2022-12-23T00:56:28.255Z,37.20
2022-12-23T01:01:52.356Z,35.77
2022-12-23T01:06:55.066Z,33.75
2022-12-23T01:11:57.556Z,38.27
2022-12-23T01:17:01.644Z,41.30
2022-12-23T01:22:05.366Z,42.25
2022-12-23T01:27:07.910Z,45.47
2022-12-23T01:32:12.803Z,41.20
2022-12-23T01:37:15.535Z,40.22
2022-12-23T01:42:36.375Z,46.23
2022-12-23T01:47:41.226Z,42.80
2022-12-23T01:52:45.523Z,45.42
2022-12-23T01:57:47.981Z,48.45
2022-12-23T02:03:10.447Z,43.20
2022-12-23T02:08:32.228Z,45.63
2022-12-23T02:13:37.140Z,50.83
2022-12-23T02:19:00.264Z,51.35
2022-12-23T02:24:15.333Z,48.03
2022-12-23T02:29:32.624Z,51.20
2022-12-23T02:34:41.451Z,60.67
2022-12-23T02:39:46.946Z,56.33
2022-12-23T02:44:53.684Z,55.22
2022-12-23T02:49:59.744Z,51.97
2022-12-23T02:55:04.280Z,56.20
2022-12-23T03:00:08.092Z,62.90
2022-12-23T03:05:25.543Z,54.10
2022-12-23T03:10:30.607Z,52.45
2022-12-23T03:15:36.662Z,47.13
2022-12-23T03:20:44.466Z,50.35
2022-12-23T03:25:51.039Z,48.67
2022-12-23T03:30:55.267Z,41.10
2022-12-23T03:36:01.442Z,46.05
2022-12-23T03:41:06.077Z,41.85
2022-12-23T03:46:11.369Z,43.63
2022-12-23T03:51:17.921Z,42.45
2022-12-23T03:56:22.709Z,47.03
2022-12-23T04:01:28.456Z,40.80
2022-12-23T04:06:37.131Z,41.13
2022-12-23T04:11:39.711Z,42.15
2022-12-23T04:16:42.295Z,44.43
2022-12-23T04:21:46.072Z,44.77
2022-12-23T04:26:48.550Z,41.10
2022-12-23T04:31:50.999Z,37.67
2022-12-23T04:36:54.808Z,43.63
2022-12-23T04:41:57.246Z,36.70
2022-12-23T04:46:59.695Z,41.55
2022-12-23T04:52:03.473Z,42.92
2022-12-23T04:57:05.981Z,45.50
2022-12-23T05:02:08.646Z,38.08
2022-12-23T05:07:12.620Z,43.63
2022-12-23T05:12:15.055Z,44.10
2022-12-23T05:17:17.588Z,42.03
2022-12-23T05:22:21.361Z,48.07
2022-12-23T05:27:25.893Z,48.40
2022-12-23T05:32:28.291Z,60.08
2022-12-23T05:37:32.083Z,58.22
2022-12-23T05:42:34.528Z,56.72
2022-12-23T05:47:37.462Z,64.47
2022-12-23T05:52:41.261Z,62.60
2022-12-23T05:57:43.742Z,63.20
2022-12-23T06:02:53.320Z,63.75
2022-12-23T06:07:58.109Z,64.43
2022-12-23T06:13:00.497Z,61.20
2022-12-23T06:18:02.879Z,76.15
2022-12-23T06:23:06.636Z,85.25
2022-12-23T06:28:09.086Z,91.32
2022-12-23T06:33:11.560Z,106.15
2022-12-23T06:38:15.330Z,100.40
2022-12-23T06:43:17.776Z,78.45
2022-12-23T06:48:20.450Z,87.75
2022-12-23T06:53:24.266Z,76.53
2022-12-23T06:58:27.134Z,80.97
2022-12-23T07:03:29.569Z,69.13
2022-12-23T07:08:33.355Z,68.50
2022-12-23T07:13:35.835Z,66.85
2022-12-23T07:18:38.327Z,55.45
2022-12-23T07:23:42.094Z,61.72
2022-12-23T07:28:46.820Z,58.15
2022-12-23T07:33:49.227Z,50.42
2022-12-23T07:38:53.112Z,56.80
2022-12-23T07:43:55.714Z,51.83
2022-12-23T07:48:58.220Z,57.77
2022-12-23T07:54:02.018Z,56.38
2022-12-23T07:59:04.509Z,58.22
2022-12-23T08:04:06.983Z,54.35
2022-12-23T08:09:11.403Z,51.95
2022-12-23T08:14:13.885Z,52.70
2022-12-23T08:19:16.337Z,46.90
2022-12-23T08:24:20.209Z,50.13
2022-12-23T08:29:22.670Z,50.88
2022-12-23T08:34:25.140Z,51.30
2022-12-23T08:39:29.275Z,53.67
2022-12-23T08:44:32.687Z,39.25
2022-12-23T08:54:38.874Z,42.22
2022-12-23T08:59:41.322Z,50.83
2022-12-23T09:04:43.787Z,41.15
2022-12-23T09:09:47.576Z,44.30
2022-12-23T09:14:49.980Z,44.45
2022-12-23T09:19:52.978Z,47.45
2022-12-23T09:25:03.133Z,45.25
2022-12-23T09:30:08.166Z,32.15
2022-12-23T09:35:11.723Z,30.58
2022-12-23T09:40:16.344Z,36.78
2022-12-23T09:45:25.394Z,29.95
2022-12-23T09:50:29.860Z,36.45
2022-12-23T09:55:41.250Z,31.85
2022-12-23T10:01:01.653Z,30.33
2022-12-23T10:06:08.885Z,39.67
2022-12-23T10:11:14.843Z,43.20
2022-12-23T10:16:20.298Z,42.60
2022-12-23T10:21:26.219Z,45.72
2022-12-23T10:26:33.330Z,56.45
2022-12-23T10:31:42.494Z,55.50
2022-12-23T10:36:51.194Z,65.00
2022-12-23T10:42:02.062Z,59.38
2022-12-23T10:47:11.827Z,61.15
2022-12-23T10:52:17.307Z,62.15
2022-12-23T10:57:23.508Z,69.93
2022-12-23T11:02:33.169Z,70.43
2022-12-23T11:07:46.183Z,77.18
2022-12-23T11:12:51.479Z,66.23
2022-12-23T11:18:04.607Z,66.32
2022-12-23T11:23:23.663Z,67.50
2022-12-23T11:28:27.678Z,69.25
2022-12-23T11:33:31.591Z,69.45
2022-12-23T11:38:34.924Z,77.30
2022-12-23T11:43:39.969Z,76.80
2022-12-23T11:48:42.537Z,81.20
2022-12-23T11:53:45.113Z,77.47
2022-12-23T11:58:54.930Z,78.00
2022-12-23T12:03:59.530Z,85.82
2022-12-23T12:09:05.489Z,76.22
2022-12-23T12:14:09.641Z,69.53
2022-12-23T12:19:16.704Z,81.85
2022-12-23T12:24:21.785Z,76.85
2022-12-23T12:29:28.348Z,58.22
2022-12-23T12:34:41.825Z,62.17
2022-12-23T12:39:46.724Z,60.45
2022-12-23T12:44:53.375Z,55.00
2022-12-23T12:49:59.966Z,55.88
2022-12-23T12:55:04.975Z,62.65
2022-12-23T13:00:15.910Z,47.03
2022-12-23T13:05:27.197Z,54.30
2022-12-23T13:10:35.104Z,50.10
2022-12-23T13:15:45.598Z,52.45
2022-12-23T13:20:52.064Z,48.35
2022-12-23T13:25:58.523Z,54.28
2022-12-23T13:31:10.311Z,56.22
2022-12-23T13:36:19.597Z,55.55
2022-12-23T13:41:26.358Z,47.88
2022-12-23T13:46:36.850Z,55.97
2022-12-23T13:51:42.037Z,49.80
2022-12-23T13:56:46.123Z,50.28
2022-12-23T14:01:52.584Z,45.13
2022-12-23T14:06:56.637Z,52.70
2022-12-23T14:12:08.867Z,47.70
2022-12-23T14:17:17.280Z,52.53
2022-12-23T14:22:34.545Z,50.28
2022-12-23T14:27:42.707Z,51.75
2022-12-23T14:32:49.034Z,52.42
2022-12-23T14:38:10.393Z,46.53
2022-12-23T14:43:38.585Z,52.65
2022-12-23T14:54:55.080Z,53.80
2022-12-23T15:00:04.550Z,44.22
2022-12-23T15:10:16.747Z,47.58
2022-12-23T15:15:20.145Z,44.35
2022-12-23T15:30:49.984Z,70.03
2022-12-23T15:35:52.885Z,67.55
2022-12-23T15:40:59.130Z,68.75
2022-12-23T15:46:10.909Z,64.47
2022-12-23T15:51:14.727Z,80.22
2022-12-23T15:56:22.348Z,128.02
2022-12-23T16:01:26.590Z,96.32
2022-12-23T16:06:31.916Z,76.63
2022-12-23T16:11:42.175Z,62.22
2022-12-23T16:16:46.115Z,89.28
2022-12-23T16:21:50.979Z,77.20
2022-12-23T16:26:56.295Z,76.80
2022-12-23T16:32:01.864Z,71.78
2022-12-23T16:37:05.062Z,89.15
2022-12-23T16:42:07.662Z,79.10
2022-12-23T16:47:17.440Z,85.47
2022-12-23T16:52:19.983Z,131.45
2022-12-23T16:57:23.617Z,89.03
2022-12-23T17:02:28.766Z,95.35
2022-12-23T17:07:32.657Z,99.95
2022-12-23T17:12:36.793Z,93.43
2022-12-23T17:17:41.039Z,105.95
2022-12-23T17:22:44.833Z,103.82
2022-12-23T17:27:47.592Z,106.40
2022-12-23T17:32:59.356Z,111.43
2022-12-23T17:43:58.595Z,110.57
2022-12-23T17:49:03.490Z,106.50
2022-12-23T17:54:06.524Z,101.38
2022-12-23T17:59:27.201Z,111.65
2022-12-23T18:04:51.507Z,104.32
2022-12-23T18:10:15.923Z,110.47
2022-12-23T18:15:40.211Z,104.68
2022-12-23T18:20:46.181Z,108.35
2022-12-23T18:25:48.804Z,96.75
2022-12-23T18:30:55.088Z,109.90
2022-12-23T18:35:59.254Z,90.47
2022-12-23T18:41:02.738Z,97.90
2022-12-23T18:51:14.558Z,79.47
2022-12-23T18:56:19.311Z,96.63
2022-12-23T19:01:21.870Z,75.88
2022-12-23T19:06:27.923Z,74.50
2022-12-23T19:11:30.486Z,87.38
2022-12-23T19:16:33.058Z,87.10
2022-12-23T19:21:38.449Z,101.70
2022-12-23T19:26:41.066Z,95.18
2022-12-23T19:36:49.208Z,90.85
2022-12-23T19:41:53.825Z,98.80
2022-12-23T19:46:56.364Z,95.05
2022-12-23T19:52:00.319Z,86.77
2022-12-23T19:57:02.928Z,72.18
2022-12-23T20:02:05.621Z,65.80
2022-12-23T20:07:10.893Z,55.13
2022-12-23T20:12:15.617Z,50.28
2022-12-23T20:17:19.134Z,47.45
2022-12-23T20:22:25.266Z,40.90
2022-12-23T20:27:28.435Z,34.67
2022-12-23T20:32:31.130Z,46.42
2022-12-23T20:37:37.187Z,38.67
2022-12-23T20:42:39.647Z,50.22
2022-12-23T20:47:44.181Z,53.07
2022-12-23T20:52:49.105Z,42.40
2022-12-23T20:57:52.776Z,39.47
2022-12-23T21:02:55.340Z,46.10
2022-12-23T21:08:00.472Z,36.60
2022-12-23T21:13:03.442Z,45.17
2022-12-23T21:18:06.137Z,41.30
2022-12-23T21:23:10.068Z,35.10
2022-12-23T21:28:12.830Z,31.60
2022-12-23T21:33:17.600Z,27.83
2022-12-23T21:38:38.172Z,25.27
2022-12-23T21:43:42.708Z,31.65
2022-12-23T21:48:45.634Z,24.00
2022-12-23T21:53:49.175Z,23.38
2022-12-23T21:58:55.289Z,23.63
2022-12-23T22:03:59.251Z,21.60
2022-12-23T22:09:01.948Z,24.27
2022-12-23T22:14:08.689Z,18.87
2022-12-23T22:19:12.457Z,15.30
2022-12-23T22:24:19.136Z,25.77
2022-12-23T22:29:25.504Z,22.10
2022-12-23T22:34:28.210Z,21.60
2022-12-23T22:39:31.937Z,18.47
2022-12-23T22:44:35.994Z,21.48
2022-12-23T22:49:38.774Z,20.00
2022-12-23T22:54:41.746Z,17.20
2022-12-23T22:59:47.780Z,14.77
2022-12-23T23:04:53.115Z,23.65
2022-12-23T23:09:56.716Z,22.13
2022-12-23T23:15:00.750Z,29.08
2022-12-23T23:20:05.745Z,24.60
2022-12-23T23:25:08.639Z,20.73
2022-12-23T23:30:13.418Z,21.77
2022-12-23T23:35:16.983Z,20.63
2022-12-23T23:40:20.703Z,31.67
2022-12-23T23:45:27.458Z,30.05
2022-12-23T23:50:30.329Z,25.55
2022-12-23T23:55:35.476Z,33.30
